Time;durP1;ratioP1;P1;durP2;ratioP2;P2;SDS_P1;SDS_P2;PMS_P1;PMS_P2;Temp;Humidity;BMP_temperature;BMP_pressure;BME280_temperature;BME280_humidity;BME280_pressure;Samples;Min_cycle;Max_cycle;Signal;HPM_P1;HPM_P2
2024/01/30 00:01:54;;;;;;;8.90;6.22;;;;;;;-2.42;94.90;94812.94;5069107;28;20545;-71
2024/01/30 00:04:21;;;;;;;9.02;5.50;;;;;;;-2.48;96.03;94825.88;5069750;28;20559;-71
2024/01/30 00:06:50;;;;;;;9.52;5.45;;;;;;;-2.52;96.30;94828.66;5072975;28;20050;-71
2024/01/30 00:09:18;;;;;;;8.93;5.50;;;;;;;-2.63;96.22;94832.63;5070520;28;20084;-71
2024/01/30 00:11:45;;;;;;;8.55;5.40;;;;;;;-2.66;95.78;94826.94;5071530;28;20109;-71
2024/01/30 00:14:12;;;;;;;8.18;4.88;;;;;;;-2.59;95.50;94838.28;5067312;28;20524;-71
2024/01/30 00:16:39;;;;;;;7.70;5.25;;;;;;;-2.98;96.17;94780.94;5069557;28;20391;-71
2024/01/30 00:19:08;;;;;;;7.85;4.85;;;;;;;-2.52;95.66;94828.66;5068757;28;20562;-71
2024/01/30 00:21:35;;;;;;;6.80;4.78;;;;;;;-2.48;94.46;94830.09;5069593;28;20040;-71
2024/01/30 00:24:03;;;;;;;7.75;5.10;;;;;;;-2.55;94.84;94820.41;5068821;28;20100;-71
2024/01/30 00:26:31;;;;;;;7.05;4.47;;;;;;;-2.66;94.60;94832.78;5070272;28;20129;-71
2024/01/30 00:28:58;;;;;;;8.32;4.90;;;;;;;-2.88;94.89;94798.81;5068949;28;20048;-71
2024/01/30 00:31:25;;;;;;;8.32;5.47;;;;;;;-2.87;95.33;94797.91;5067810;28;20048;-71
2024/01/30 00:33:52;;;;;;;9.07;5.20;;;;;;;-2.73;95.45;94809.69;5071079;28;20044;-71
2024/01/30 00:36:19;;;;;;;11.07;5.80;;;;;;;-2.74;95.85;94825.69;5068683;28;20045;-72
2024/01/30 00:38:46;;;;;;;9.35;5.47;;;;;;;-2.74;96.81;94823.16;5069409;28;20044;-71
2024/01/30 00:41:15;;;;;;;9.15;5.20;;;;;;;-2.54;95.92;94823.72;5072266;28;20059;-72
2024/01/30 00:43:42;;;;;;;10.25;6.47;;;;;;;-2.82;96.92;94821.09;5067910;28;20412;-71
2024/01/30 00:46:09;;;;;;;10.07;5.90;;;;;;;-2.69;96.97;94823.72;5074219;28;20052;-72
2024/01/30 00:48:36;;;;;;;9.27;5.78;;;;;;;-2.82;96.91;94823.59;5068288;28;20045;-72
2024/01/30 00:51:03;;;;;;;8.18;5.72;;;;;;;-2.83;97.67;94826.19;5067704;28;20054;-72
2024/01/30 00:53:30;;;;;;;9.57;6.00;;;;;;;-2.87;98.25;94818.03;5069865;28;20057;-72
2024/01/30 00:55:57;;;;;;;11.43;6.65;;;;;;;-2.79;98.06;94831.88;5067013;28;20048;-71
2024/01/30 00:58:25;;;;;;;10.07;6.50;;;;;;;-2.63;97.91;94824.25;5069688;28;20052;-71
2024/01/30 01:00:52;;;;;;;11.27;7.30;;;;;;;-2.83;98.27;94814.44;5068369;28;20072;-72
2024/01/30 01:03:19;;;;;;;8.43;6.18;;;;;;;-2.96;98.76;94821.06;5070040;28;20052;-72
2024/01/30 01:05:46;;;;;;;8.82;5.75;;;;;;;-2.91;99.46;94831.69;5076403;28;20044;-72
2024/01/30 01:08:14;;;;;;;8.85;6.38;;;;;;;-2.97;99.44;94825.28;5067074;28;20060;-72
2024/01/30 01:10:42;;;;;;;12.32;7.43;;;;;;;-3.07;99.99;94820.88;5078624;28;20044;-72
2024/01/30 01:13:09;;;;;;;10.50;6.43;;;;;;;-3.18;100.00;94821.47;5070120;28;20084;-72
2024/01/30 01:15:37;;;;;;;12.20;6.80;;;;;;;-2.99;100.00;94826.25;5072187;28;20492;-71
2024/01/30 01:18:04;;;;;;;195.13;84.07;;;;;;;-3.00;100.00;94827.16;5075775;28;20040;-70
2024/01/30 01:20:31;;;;;;;39.20;19.00;;;;;;;-3.26;100.00;94819.38;5075122;28;20058;-70
2024/01/30 01:22:58;;;;;;;10.10;5.72;;;;;;;-3.13;100.00;94811.97;5082420;28;20043;-70
2024/01/30 01:25:25;;;;;;;8.60;6.07;;;;;;;-3.12;100.00;94814.38;5075531;28;20048;-70
2024/01/30 01:27:52;;;;;;;10.38;5.72;;;;;;;-3.19;99.72;94819.84;5071448;28;20469;-70
2024/01/30 01:30:21;;;;;;;7.60;5.00;;;;;;;-3.09;99.32;94820.94;5070877;28;20049;-71
2024/01/30 01:32:54;;;;;;;8.90;5.68;;;;;;;-2.96;97.94;94821.88;5072249;28;20500;-71
2024/01/30 01:35:22;;;;;;;10.40;5.82;;;;;;;-3.07;97.83;94813.34;5070595;28;20158;-71
2024/01/30 01:37:54;;;;;;;11.57;5.43;;;;;;;-2.85;97.44;94830.50;5079277;28;20048;-71
2024/01/30 01:40:22;;;;;;;9.52;5.18;;;;;;;-2.96;97.29;94826.91;5070806;28;20048;-71
2024/01/30 01:42:51;;;;;;;7.70;4.88;;;;;;;-2.93;97.01;94825.91;5070066;28;20041;-71
2024/01/30 01:45:18;;;;;;;10.73;6.00;;;;;;;-2.96;96.70;94813.53;5073329;28;20052;-71
2024/01/30 01:47:48;;;;;;;9.65;5.50;;;;;;;-2.83;96.60;94832.03;5075668;28;20049;-71
2024/01/30 01:50:18;;;;;;;11.52;5.60;;;;;;;-2.72;96.32;94835.66;5070349;28;20051;-71
2024/01/30 01:52:45;;;;;;;12.82;6.55;;;;;;;-2.78;96.01;94843.56;5068368;28;20055;-70
2024/01/30 01:55:14;;;;;;;8.10;5.57;;;;;;;-2.70;95.63;94834.69;5082530;28;20403;-70
2024/01/30 01:57:42;;;;;;;9.27;5.32;;;;;;;-2.43;94.80;94836.50;5070846;28;20209;-70
2024/01/30 02:00:10;;;;;;;7.10;4.65;;;;;;;-2.84;96.13;94844.69;5071322;28;20040;-71
2024/01/30 02:02:38;;;;;;;8.43;5.15;;;;;;;-3.01;96.11;94815.50;5072143;28;20041;-70
2024/01/30 02:05:06;;;;;;;6.80;4.72;;;;;;;-2.70;95.81;94831.34;5070549;28;21469;-71
2024/01/30 02:07:34;;;;;;;10.43;6.25;;;;;;;-2.68;95.34;94827.03;5073447;28;20040;-71
2024/01/30 02:10:01;;;;;;;8.93;5.85;;;;;;;-2.63;95.43;94840.19;5073806;28;20056;-70
2024/01/30 02:12:28;;;;;;;7.90;5.05;;;;;;;-2.66;95.22;94839.50;5071131;28;20056;-70
2024/01/30 02:14:55;;;;;;;10.02;5.88;;;;;;;-2.87;96.81;94840.66;5070125;28;20052;-70
2024/01/30 02:17:23;;;;;;;9.05;5.80;;;;;;;-2.84;96.53;94827.91;5070021;28;20127;-70
2024/01/30 02:19:50;;;;;;;8.45;4.85;;;;;;;-2.89;96.07;94832.41;5080034;28;20055;-70
2024/01/30 02:22:19;;;;;;;9.50;5.78;;;;;;;-2.98;97.25;94823.66;5072160;28;20044;-70
2024/01/30 02:24:46;;;;;;;7.72;4.82;;;;;;;-2.92;96.73;94834.28;5068316;28;20047;-70
2024/01/30 02:27:13;;;;;;;8.35;5.35;;;;;;;-2.88;97.06;94839.03;5073918;28;20040;-70
2024/01/30 02:29:39;;;;;;;8.13;5.15;;;;;;;-2.87;96.20;94840.66;5070222;28;20045;-71
2024/01/30 02:32:07;;;;;;;8.70;5.68;;;;;;;-2.84;96.25;94835.47;5073343;28;20522;-70
2024/01/30 02:34:34;;;;;;;7.50;5.60;;;;;;;-2.85;95.95;94833.84;5078464;28;20048;-70
2024/01/30 02:37:01;;;;;;;7.45;4.60;;;;;;;-2.99;96.63;94838.84;5079811;28;20733;-70
2024/01/30 02:39:29;;;;;;;7.50;4.97;;;;;;;-2.85;96.92;94831.34;5071273;28;20044;-71
2024/01/30 02:41:57;;;;;;;7.35;4.82;;;;;;;-3.17;96.95;94828.91;5072095;28;20048;-70
2024/01/30 02:44:23;;;;;;;8.00;4.97;;;;;;;-3.19;97.50;94822.34;5071134;28;20048;-71
2024/01/30 02:46:50;;;;;;;6.95;4.80;;;;;;;-3.30;98.14;94843.84;5072753;28;20040;-70
2024/01/30 02:49:17;;;;;;;7.45;4.93;;;;;;;-3.14;98.29;94832.97;5071521;28;20493;-70
2024/01/30 02:51:45;;;;;;;6.82;4.50;;;;;;;-3.17;97.42;94835.63;5072472;28;20044;-70
2024/01/30 02:54:12;;;;;;;7.43;4.47;;;;;;;-3.33;98.49;94825.63;5069028;28;20059;-70
2024/01/30 02:56:40;;;;;;;7.80;5.32;;;;;;;-3.28;99.36;94824.47;5073707;28;20412;-70
2024/01/30 02:59:07;;;;;;;7.40;4.93;;;;;;;-3.36;99.78;94804.00;5068288;28;20049;-71
2024/01/30 03:01:34;;;;;;;7.68;5.30;;;;;;;-3.27;99.62;94821.09;5074966;28;20083;-70
2024/01/30 03:04:01;;;;;;;8.35;4.80;;;;;;;-3.31;99.48;94818.81;5068338;28;20138;-70
2024/01/30 03:06:28;;;;;;;8.05;5.80;;;;;;;-3.32;99.83;94818.00;5072693;28;20052;-70
2024/01/30 03:08:55;;;;;;;7.88;5.75;;;;;;;-3.30;100.00;94833.81;5072045;28;20123;-70
2024/01/30 03:11:22;;;;;;;11.45;7.32;;;;;;;-3.28;100.00;94806.88;5067445;28;20070;-70
2024/01/30 03:13:50;;;;;;;7.97;5.50;;;;;;;-3.22;100.00;94815.78;5070352;28;20055;-70
2024/01/30 03:16:17;;;;;;;8.32;5.88;;;;;;;-3.25;100.00;94803.38;5069556;28;20052;-69
2024/01/30 03:18:44;;;;;;;7.88;5.90;;;;;;;-3.20;99.24;94816.50;5071086;28;20086;-70
2024/01/30 03:21:11;;;;;;;11.07;5.78;;;;;;;-3.22;99.79;94808.25;5069205;28;20453;-70
2024/01/30 03:23:38;;;;;;;8.32;5.47;;;;;;;-3.25;100.00;94801.69;5069248;28;20048;-70
2024/01/30 03:26:06;;;;;;;6.90;5.20;;;;;;;-3.16;99.98;94807.13;5078304;28;20055;-70
2024/01/30 03:28:33;;;;;;;8.02;5.60;;;;;;;-3.06;99.70;94799.88;5068567;28;20040;-70
2024/01/30 03:31:02;;;;;;;8.70;6.22;;;;;;;-3.02;99.40;94801.31;5070764;28;20040;-70
2024/01/30 03:33:29;;;;;;;10.25;6.65;;;;;;;-3.00;99.86;94802.81;5072697;28;20504;-70
2024/01/30 03:35:56;;;;;;;8.38;5.95;;;;;;;-3.09;98.43;94800.84;5078669;28;20093;-70
2024/01/30 03:38:23;;;;;;;10.02;5.80;;;;;;;-2.99;99.06;94791.88;5071191;28;20052;-70
2024/01/30 03:40:49;;;;;;;9.23;6.22;;;;;;;-3.03;98.16;94797.97;5075550;28;20046;-69
2024/01/30 03:43:16;;;;;;;10.85;6.75;;;;;;;-3.08;98.91;94792.41;5071256;28;20036;-70
2024/01/30 03:45:43;;;;;;;7.93;6.03;;;;;;;-3.36;98.76;94779.69;5075596;28;20064;-70
2024/01/30 03:48:11;;;;;;;12.02;7.63;;;;;;;-2.95;98.84;94793.31;5071700;28;20040;-71
2024/01/30 03:50:39;;;;;;;7.40;5.25;;;;;;;-3.02;97.28;94799.59;5068520;28;20059;-71
2024/01/30 03:53:05;;;;;;;7.15;5.32;;;;;;;-3.03;97.10;94797.97;5069048;28;20059;-70
2024/01/30 03:55:32;;;;;;;7.93;5.03;;;;;;;-2.96;96.84;94795.94;5067847;28;20408;-71
2024/01/30 03:58:17;;;;;;;9.30;5.25;;;;;;;-3.16;97.29;94794.53;5077020;28;21100;-70
2024/01/30 04:00:44;;;;;;;6.75;4.60;;;;;;;-3.17;96.27;94798.75;5076995;28;20683;-70
2024/01/30 04:03:13;;;;;;;6.22;4.18;;;;;;;-3.02;96.01;94786.22;5071090;28;20078;-70
2024/01/30 04:05:40;;;;;;;7.07;4.60;;;;;;;-3.14;94.90;94780.19;5068006;28;20067;-70
2024/01/30 04:08:07;;;;;;;7.32;4.45;;;;;;;-3.13;95.17;94790.16;5068170;28;20048;-70
2024/01/30 04:10:35;;;;;;;7.30;4.63;;;;;;;-3.26;94.82;94785.00;5070318;28;20048;-70
2024/01/30 04:13:01;;;;;;;6.85;4.72;;;;;;;-3.24;94.45;94795.75;5068066;28;20053;-70
2024/01/30 04:15:29;;;;;;;6.50;4.50;;;;;;;-3.20;94.61;94790.59;5069647;28;20055;-69
2024/01/30 04:17:58;;;;;;;9.05;5.28;;;;;;;-3.17;94.81;94798.75;5080868;28;20044;-70
2024/01/30 04:20:27;;;;;;;9.23;5.15;;;;;;;-3.04;94.04;94800.56;5071819;28;20047;-70
2024/01/30 04:22:54;;;;;;;8.65;4.97;;;;;;;-3.09;93.94;94801.63;5072166;28;20055;-69
2024/01/30 04:25:21;;;;;;;6.90;4.22;;;;;;;-3.23;94.04;94794.06;5066656;28;20054;-70
2024/01/30 04:27:48;;;;;;;7.70;4.65;;;;;;;-3.18;93.21;94797.13;5069330;28;20044;-69
2024/01/30 04:30:15;;;;;;;6.35;4.90;;;;;;;-3.10;93.11;94794.19;5068260;28;20048;-69
2024/01/30 04:32:42;;;;;;;6.80;3.92;;;;;;;-3.23;93.08;94792.34;5067189;28;20131;-70
2024/01/30 04:35:09;;;;;;;16.23;7.55;;;;;;;-3.21;92.30;94784.72;5071621;28;20131;-70
2024/01/30 04:37:37;;;;;;;6.72;4.32;;;;;;;-3.04;92.83;94813.97;5071474;28;20148;-70
2024/01/30 04:40:05;;;;;;;5.57;4.03;;;;;;;-3.25;92.40;94801.69;5077803;28;20476;-69
2024/01/30 04:42:32;;;;;;;6.13;4.65;;;;;;;-3.05;92.03;94804.00;5068944;28;20049;-70
2024/01/30 04:44:59;;;;;;;6.18;4.13;;;;;;;-3.20;91.97;94803.94;5071640;28;20047;-70
2024/01/30 04:47:26;;;;;;;7.03;4.28;;;;;;;-3.20;91.80;94808.19;5069458;28;20608;-69
2024/01/30 04:49:53;;;;;;;6.10;4.40;;;;;;;-3.13;92.43;94812.78;5071228;28;20053;-70
2024/01/30 04:52:20;;;;;;;6.07;4.55;;;;;;;-3.05;92.12;94809.00;5078801;28;20048;-70
2024/01/30 04:54:48;;;;;;;7.38;4.15;;;;;;;-3.05;91.92;94814.03;5072177;28;20151;-69
2024/01/30 04:57:15;;;;;;;19.40;11.43;;;;;;;-3.16;91.98;94822.19;5077002;28;20050;-69
2024/01/30 04:59:42;;;;;;;19.45;11.07;;;;;;;-3.26;92.37;94811.81;5075771;28;20055;-69
2024/01/30 05:02:10;;;;;;;7.95;5.10;;;;;;;-3.09;91.94;94818.44;5071113;28;20090;-69
2024/01/30 05:04:37;;;;;;;6.80;4.40;;;;;;;-3.20;92.04;94818.22;5072709;28;20070;-69
2024/01/30 05:07:05;;;;;;;5.70;3.80;;;;;;;-3.10;91.29;94821.84;5080465;28;20041;-69
2024/01/30 05:09:32;;;;;;;6.30;4.13;;;;;;;-3.17;92.05;94823.88;5071744;28;20048;-69
2024/01/30 05:12:00;;;;;;;5.63;4.10;;;;;;;-3.03;91.74;94812.25;5081017;28;20102;-69
2024/01/30 05:14:27;;;;;;;6.43;4.40;;;;;;;-3.19;92.62;94832.41;5073170;28;20054;-69
2024/01/30 05:16:54;;;;;;;5.35;3.65;;;;;;;-3.29;92.26;94820.34;5070604;28;20074;-69
2024/01/30 05:19:23;;;;;;;8.00;5.88;;;;;;;-3.09;91.61;94841.06;5073286;28;20045;-69
2024/01/30 05:21:50;;;;;;;10.32;6.18;;;;;;;-3.22;92.03;94844.25;5074196;28;20074;-69
2024/01/30 05:24:17;;;;;;;7.47;5.35;;;;;;;-3.25;92.33;94841.91;5073813;28;20070;-69
2024/01/30 05:26:44;;;;;;;7.97;5.80;;;;;;;-3.21;92.56;94842.53;5071644;28;20047;-69
2024/01/30 05:29:12;;;;;;;7.13;4.50;;;;;;;-3.25;93.13;94851.13;5074601;28;20044;-69
2024/01/30 05:31:42;;;;;;;7.25;4.45;;;;;;;-3.29;92.93;94847.19;5070971;28;20051;-69
2024/01/30 05:34:11;;;;;;;8.32;5.47;;;;;;;-3.40;93.93;94840.22;5072567;28;20411;-69
2024/01/30 05:39:23;;;;;;;7.07;4.65;;;;;;;-3.26;94.33;94850.34;5069853;28;20086;-70
2024/01/30 05:41:50;;;;;;;7.97;5.72;;;;;;;-3.11;93.98;94845.34;5074448;28;20058;-70
2024/01/30 05:44:18;;;;;;;7.63;4.53;;;;;;;-3.13;94.05;94844.63;5070380;28;20045;-70
2024/01/30 05:46:45;;;;;;;7.65;4.60;;;;;;;-3.34;93.46;94849.94;5073903;28;20045;-70
2024/01/30 05:49:12;;;;;;;8.02;5.20;;;;;;;-3.11;93.83;94845.34;5075583;28;20508;-70
2024/01/30 05:51:39;;;;;;;6.65;4.78;;;;;;;-3.28;93.58;94854.63;5071710;28;20047;-70
2024/01/30 05:54:06;;;;;;;7.70;5.47;;;;;;;-3.25;94.30;94839.38;5077764;28;20148;-70
2024/01/30 05:56:33;;;;;;;10.27;5.88;;;;;;;-3.33;93.76;94849.06;5084685;28;20044;-69
2024/01/30 05:58:59;;;;;;;9.02;5.82;;;;;;;-3.43;94.98;94852.97;5073333;28;20044;-70
2024/01/30 06:01:29;;;;;;;8.95;6.22;;;;;;;-3.31;94.52;94821.31;5073217;28;20048;-70
2024/01/30 06:03:56;;;;;;;10.20;7.00;;;;;;;-2.91;92.79;94851.81;5073438;28;20127;-70
2024/01/30 06:06:23;;;;;;;11.82;7.05;;;;;;;-3.18;93.71;94854.13;5077725;28;20413;-70
2024/01/30 06:08:50;;;;;;;9.60;6.85;;;;;;;-3.25;93.86;94853.66;5073993;28;20154;-70
2024/01/30 06:11:17;;;;;;;11.70;6.75;;;;;;;-3.17;94.25;94851.53;5075345;28;20527;-70
2024/01/30 06:13:44;;;;;;;13.07;8.43;;;;;;;-3.43;93.91;94832.88;5069822;28;20056;-70
2024/01/30 06:16:12;;;;;;;11.77;7.20;;;;;;;-3.36;94.50;94842.50;5069959;28;20515;-70
2024/01/30 06:18:40;;;;;;;25.73;14.55;;;;;;;-3.40;94.89;94843.56;5071858;28;20048;-70
2024/01/30 06:21:07;;;;;;;21.23;11.40;;;;;;;-3.44;94.06;94841.28;5070586;28;20045;-70
2024/01/30 06:23:34;;;;;;;20.48;12.48;;;;;;;-3.50;93.98;94847.47;5071410;28;20052;-70
2024/01/30 06:26:01;;;;;;;10.65;7.50;;;;;;;-3.53;94.17;94843.41;5075484;28;20048;-70
2024/01/30 06:28:28;;;;;;;45.90;18.95;;;;;;;-3.41;94.02;94848.66;5071404;28;20497;-70
2024/01/30 06:30:55;;;;;;;15.70;9.43;;;;;;;-3.43;93.83;94855.47;5076378;28;20465;-70
2024/01/30 06:33:22;;;;;;;9.88;6.60;;;;;;;-3.39;92.03;94845.16;5071821;28;20044;-69
2024/01/30 06:35:50;;;;;;;11.18;6.82;;;;;;;-3.36;91.84;94851.72;5069700;28;20872;-70
2024/01/30 06:38:17;;;;;;;10.23;6.00;;;;;;;-3.29;90.69;94852.22;5070952;28;20040;-70
2024/01/30 06:40:44;;;;;;;9.00;6.43;;;;;;;-3.30;90.27;94838.84;5069774;28;20041;-70
2024/01/30 06:43:11;;;;;;;12.55;7.85;;;;;;;-3.30;89.81;94836.31;5069070;28;20083;-70
2024/01/30 06:45:38;;;;;;;13.95;7.70;;;;;;;-3.08;89.80;94842.69;5069353;28;20055;-70
2024/01/30 06:48:06;;;;;;;13.25;8.38;;;;;;;-3.05;89.36;94845.03;5069461;28;20598;-70
2024/01/30 06:50:33;;;;;;;13.32;8.80;;;;;;;-3.03;89.31;94850.78;5070181;28;20059;-70
2024/01/30 06:53:01;;;;;;;14.27;7.35;;;;;;;-2.76;87.93;94847.59;5073401;28;20530;-70
2024/01/30 06:55:28;;;;;;;7.13;5.00;;;;;;;-2.97;87.82;94835.34;5074257;28;20048;-70
2024/01/30 06:57:55;;;;;;;8.57;5.85;;;;;;;-2.87;88.15;94853.22;5077404;28;20127;-70
2024/01/30 07:00:23;;;;;;;13.40;7.72;;;;;;;-2.65;86.86;94856.25;5074017;28;20063;-70
2024/01/30 07:02:50;;;;;;;10.60;6.05;;;;;;;-2.64;86.11;94847.81;5072070;28;20052;-70
2024/01/30 07:05:17;;;;;;;9.68;5.10;;;;;;;-2.64;87.10;94855.34;5071984;28;20056;-69
2024/01/30 07:07:44;;;;;;;6.18;4.63;;;;;;;-2.46;85.85;94856.00;5079261;28;20050;-69
2024/01/30 07:10:13;;;;;;;5.22;3.78;;;;;;;-2.49;84.79;94859.50;5072549;28;20050;-69
2024/01/30 07:12:41;;;;;;;10.25;5.85;;;;;;;-2.22;84.78;94852.94;5071410;28;20047;-70
2024/01/30 07:15:09;;;;;;;7.55;5.22;;;;;;;-2.25;84.22;94858.16;5072264;28;20052;-70
2024/01/30 07:17:35;;;;;;;15.10;7.70;;;;;;;-2.22;82.85;94838.63;5078074;28;20055;-70
2024/01/30 07:20:03;;;;;;;15.45;8.45;;;;;;;-2.09;83.93;94836.19;5068766;28;20070;-70
2024/01/30 07:22:31;;;;;;;6.38;4.25;;;;;;;-1.95;81.91;94854.72;5075554;28;20108;-70
2024/01/30 07:24:58;;;;;;;8.15;4.55;;;;;;;-1.93;81.60;94843.66;5074510;28;20047;-70
2024/01/30 07:27:26;;;;;;;6.45;4.65;;;;;;;-1.96;81.50;94843.84;5080772;28;20036;-70
2024/01/30 07:29:53;;;;;;;7.60;4.55;;;;;;;-1.92;81.12;94844.47;5071161;28;20050;-69
2024/01/30 07:32:20;;;;;;;13.15;7.15;;;;;;;-1.94;81.03;94844.53;5076857;28;20059;-69
2024/01/30 07:34:47;;;;;;;12.48;6.65;;;;;;;-1.69;80.39;94847.28;5076070;28;20067;-69
2024/01/30 07:37:15;;;;;;;8.50;4.28;;;;;;;-1.77;79.39;94851.09;5072229;28;20057;-69
2024/01/30 07:39:42;;;;;;;4.50;3.15;;;;;;;-1.95;79.92;94832.84;5078872;28;20060;-69
2024/01/30 07:42:09;;;;;;;8.82;4.63;;;;;;;-1.81;79.68;94844.63;5077452;28;20059;-69
2024/01/30 07:44:38;;;;;;;7.80;4.35;;;;;;;-1.77;79.06;94837.69;5073858;28;20101;-69
2024/01/30 07:47:05;;;;;;;10.20;4.80;;;;;;;-1.64;79.18;94841.09;5067930;28;20054;-69
2024/01/30 07:49:34;;;;;;;16.38;8.27;;;;;;;-1.83;79.55;94851.47;5073690;28;20094;-69
2024/01/30 07:52:01;;;;;;;6.03;3.22;;;;;;;-1.70;79.26;94836.41;5074724;28;20601;-69
2024/01/30 07:54:33;;;;;;;10.35;5.63;;;;;;;-1.49;78.93;94836.81;5074305;28;20056;-69
2024/01/30 07:57:00;;;;;;;4.72;3.10;;;;;;;-1.75;78.74;94836.69;5074351;28;20093;-69
2024/01/30 07:59:27;;;;;;;6.35;4.00;;;;;;;-1.76;78.27;94842.63;5076329;28;20578;-69
2024/01/30 08:01:55;;;;;;;5.20;3.53;;;;;;;-1.60;78.40;94846.75;5070700;28;20119;-69
2024/01/30 08:04:22;;;;;;;5.20;3.35;;;;;;;-1.72;77.97;94844.97;5067579;28;20056;-69
2024/01/30 08:06:49;;;;;;;6.65;4.63;;;;;;;-1.61;77.91;94850.16;5075600;28;20515;-70
2024/01/30 08:09:16;;;;;;;10.82;7.75;;;;;;;-1.52;78.37;94852.09;5070383;28;20041;-70
2024/01/30 08:11:42;;;;;;;8.07;4.82;;;;;;;-1.56;77.30;94849.88;5075389;28;20139;-70
2024/01/30 08:14:09;;;;;;;7.55;4.85;;;;;;;-1.64;76.90;94815.88;5069764;28;20404;-70
2024/01/30 08:16:36;;;;;;;7.22;4.50;;;;;;;-1.37;75.81;94852.88;5076489;28;20527;-69
2024/01/30 08:19:05;;;;;;;8.32;5.35;;;;;;;-1.25;77.56;94853.03;5070771;28;20398;-70
2024/01/30 08:21:36;;;;;;;7.18;4.50;;;;;;;-1.17;76.88;94860.91;5067660;28;20048;-70
2024/01/30 08:24:04;;;;;;;7.22;4.75;;;;;;;-1.18;76.11;94854.25;5073542;28;20049;-69
2024/01/30 08:26:31;;;;;;;11.27;6.18;;;;;;;-1.36;77.00;94862.06;5075882;28;20047;-69
2024/01/30 08:28:58;;;;;;;9.65;5.72;;;;;;;-1.03;77.06;94856.72;5074092;28;21121;-69
2024/01/30 08:31:25;;;;;;;8.80;5.65;;;;;;;-1.15;76.44;94845.69;5078794;28;20415;-70
2024/01/30 08:33:52;;;;;;;9.35;5.82;;;;;;;-0.92;75.73;94861.88;5083040;28;20058;-69
2024/01/30 08:36:21;;;;;;;7.03;4.57;;;;;;;-0.83;74.60;94858.75;5075872;28;20047;-69
2024/01/30 08:38:48;;;;;;;6.30;4.40;;;;;;;-0.69;74.31;94852.81;5079415;28;20502;-70
2024/01/30 08:41:15;;;;;;;12.05;6.82;;;;;;;-0.83;74.43;94851.19;5075642;28;20055;-69
2024/01/30 08:43:42;;;;;;;17.40;12.00;;;;;;;-0.56;73.43;94857.88;5072088;28;20048;-69
2024/01/30 08:46:09;;;;;;;8.70;5.93;;;;;;;-0.61;72.85;94864.16;5071746;28;20044;-70
2024/01/30 08:48:37;;;;;;;12.75;8.38;;;;;;;-0.68;73.94;94846.06;5074301;28;20135;-70
2024/01/30 08:51:08;;;;;;;6.68;4.10;;;;;;;-0.73;74.41;94860.69;5073363;28;20056;-70
2024/01/30 08:53:36;;;;;;;29.38;18.23;;;;;;;-0.82;74.49;94852.78;5071327;28;20056;-69
2024/01/30 08:56:04;;;;;;;11.70;7.82;;;;;;;-0.74;73.92;94857.34;5083224;28;20052;-70
2024/01/30 08:58:31;;;;;;;8.20;5.20;;;;;;;-0.63;73.86;94861.72;5071882;28;20040;-70
2024/01/30 09:00:58;;;;;;;7.53;4.10;;;;;;;-0.59;72.86;94865.66;5072325;28;20057;-70
2024/01/30 09:03:25;;;;;;;8.45;5.57;;;;;;;-0.61;72.75;94866.69;5073123;28;20055;-70
2024/01/30 09:05:52;;;;;;;8.50;5.95;;;;;;;-0.46;72.53;94859.81;5069690;28;20051;-70
2024/01/30 09:08:18;;;;;;;10.23;9.15;;;;;;;-0.20;71.95;94862.31;5074326;28;20052;-70
2024/01/30 09:10:47;;;;;;;6.28;4.22;;;;;;;-0.34;71.79;94864.06;5076570;28;20052;-70
2024/01/30 09:13:14;;;;;;;8.07;4.50;;;;;;;-0.62;72.79;94860.00;5071123;28;20091;-70
2024/01/30 09:15:43;;;;;;;7.93;5.15;;;;;;;-0.42;72.05;94861.22;5077603;28;20055;-70
2024/01/30 09:18:10;;;;;;;7.95;5.40;;;;;;;-0.33;73.12;94858.09;5077757;28;20051;-70
2024/01/30 09:20:38;;;;;;;7.28;5.43;;;;;;;-0.01;73.33;94851.78;5077297;28;20063;-70
2024/01/30 09:23:05;;;;;;;7.30;5.65;;;;;;;-0.07;71.95;94816.84;5076505;28;20053;-70
2024/01/30 09:25:32;;;;;;;31.48;18.08;;;;;;;-0.28;71.52;94863.66;5075392;28;20049;-70
2024/01/30 09:28:01;;;;;;;8.52;5.57;;;;;;;-0.49;73.42;94838.09;5073327;28;20131;-70
2024/01/30 09:30:28;;;;;;;9.27;5.85;;;;;;;-0.25;73.23;94854.22;5082394;28;20051;-70
2024/01/30 09:32:55;;;;;;;10.75;6.60;;;;;;;-0.38;73.62;94860.09;5071008;28;20048;-70
2024/01/30 09:35:22;;;;;;;71.35;37.25;;;;;;;-0.15;73.28;94871.22;5080211;28;20052;-70
2024/01/30 09:37:49;;;;;;;36.45;24.38;;;;;;;-0.03;72.85;94859.50;5070563;28;20048;-70
2024/01/30 09:40:18;;;;;;;11.50;8.10;;;;;;;-0.17;73.73;94857.06;5073714;28;20048;-70
2024/01/30 09:42:48;;;;;;;13.40;7.15;;;;;;;-0.04;75.19;94855.31;5072674;28;20045;-70
2024/01/30 09:45:16;;;;;;;18.60;11.27;;;;;;;0.09;76.38;94846.94;5073507;28;20050;-70
2024/01/30 09:47:44;;;;;;;28.00;15.75;;;;;;;-0.17;74.43;94850.31;5070107;28;20052;-71
2024/01/30 09:50:12;;;;;;;14.80;10.05;;;;;;;-0.25;74.74;94849.19;5071746;28;20044;-70
2024/01/30 09:52:40;;;;;;;27.55;16.63;;;;;;;-0.02;75.69;94851.00;5070844;28;20411;-71
2024/01/30 09:55:08;;;;;;;10.77;7.05;;;;;;;0.03;75.75;94854.91;5072943;28;20047;-71
2024/01/30 09:57:36;;;;;;;13.43;9.85;;;;;;;-0.21;77.73;94858.19;5070719;28;20489;-71
2024/01/30 10:00:03;;;;;;;13.40;9.45;;;;;;;-0.48;77.40;94857.38;5070492;28;20358;-70
2024/01/30 10:02:32;;;;;;;11.07;7.63;;;;;;;-0.46;78.06;94839.63;5068987;28;20167;-71
2024/01/30 10:05:01;;;;;;;10.82;6.65;;;;;;;-0.10;78.79;94843.13;5079695;28;20408;-71
2024/01/30 10:07:28;;;;;;;9.20;5.38;;;;;;;-0.32;78.30;94846.28;5069033;28;20115;-71
2024/01/30 10:09:56;;;;;;;9.68;6.50;;;;;;;-0.29;77.82;94843.53;5075734;28;20125;-71
2024/01/30 10:12:23;;;;;;;8.85;5.97;;;;;;;-0.18;77.04;94832.72;5070358;28;20146;-71
2024/01/30 10:14:50;;;;;;;9.50;6.15;;;;;;;-0.12;77.42;94846.66;5077642;28;20143;-71
2024/01/30 10:17:17;;;;;;;10.75;7.40;;;;;;;-0.20;77.54;94837.06;5075267;28;20051;-70
2024/01/30 10:19:45;;;;;;;8.30;5.53;;;;;;;-0.42;77.41;94830.91;5079985;28;20097;-71
2024/01/30 10:22:12;;;;;;;11.43;7.88;;;;;;;-0.22;77.01;94832.13;5069556;28;20493;-71
2024/01/30 10:24:39;;;;;;;10.90;7.78;;;;;;;0.17;76.16;94828.69;5071915;28;20043;-71
2024/01/30 10:27:07;;;;;;;12.30;8.77;;;;;;;0.06;76.71;94824.41;5074304;28;20128;-70
2024/01/30 10:29:33;;;;;;;10.05;6.43;;;;;;;-0.15;75.07;94815.66;5071564;28;20066;-71
2024/01/30 10:32:01;;;;;;;11.00;7.05;;;;;;;0.16;76.05;94822.84;5073668;28;20052;-71
2024/01/30 10:34:28;;;;;;;9.98;7.07;;;;;;;0.50;75.75;94827.28;5070046;28;20523;-71
2024/01/30 10:37:12;;;;;;;14.23;8.50;;;;;;;0.61;74.45;94834.13;5071610;28;20057;-71
2024/01/30 10:39:40;;;;;;;9.20;6.50;;;;;;;0.66;74.56;94834.63;5068935;28;20135;-71
2024/01/30 10:42:12;;;;;;;10.15;7.03;;;;;;;0.16;73.43;94842.25;5070039;28;20624;-70
2024/01/30 10:44:46;;;;;;;11.57;7.47;;;;;;;0.39;74.50;94838.16;5072566;28;20519;-70
2024/01/30 10:47:14;;;;;;;14.35;8.85;;;;;;;0.28;73.41;94833.03;5068363;28;20050;-71
2024/01/30 10:49:43;;;;;;;11.20;8.15;;;;;;;0.24;74.17;94840.81;5075479;28;20392;-71
2024/01/30 10:52:13;;;;;;;11.32;7.88;;;;;;;0.42;74.87;94817.72;5072869;28;20509;-71
2024/01/30 10:54:45;;;;;;;7.43;5.28;;;;;;;0.37;73.93;94809.66;5068799;28;20087;-71
2024/01/30 10:57:13;;;;;;;9.27;5.63;;;;;;;0.26;74.24;94807.84;5073830;28;20408;-71
2024/01/30 10:59:41;;;;;;;10.77;6.70;;;;;;;0.48;74.32;94802.13;5079243;28;20066;-71
2024/01/30 11:02:08;;;;;;;11.50;7.75;;;;;;;0.43;74.19;94801.66;5068801;28;20056;-71
2024/01/30 11:04:39;;;;;;;10.02;6.53;;;;;;;0.47;74.37;94802.22;5073191;28;20419;-70
2024/01/30 11:07:17;;;;;;;11.98;7.50;;;;;;;0.15;73.34;94787.59;5073592;28;20048;-70
2024/01/30 11:09:50;;;;;;;9.57;6.40;;;;;;;0.37;74.49;94791.97;5070375;28;20631;-70
2024/01/30 11:12:22;;;;;;;11.55;6.88;;;;;;;0.63;74.86;94796.88;5070313;28;20079;-70
2024/01/30 11:14:49;;;;;;;8.90;5.97;;;;;;;0.59;73.28;94787.91;5075217;28;20151;-71
2024/01/30 11:17:16;;;;;;;7.72;5.18;;;;;;;0.53;73.16;94779.84;5073305;28;20048;-71
2024/01/30 11:19:43;;;;;;;9.68;6.00;;;;;;;0.59;73.50;94767.66;5068228;28;20060;-71
2024/01/30 11:22:11;;;;;;;10.35;5.63;;;;;;;0.39;73.62;94795.19;5078593;28;20044;-71
2024/01/30 11:24:42;;;;;;;6.85;4.82;;;;;;;0.59;73.73;94785.38;5071072;28;20044;-71
2024/01/30 11:27:10;;;;;;;9.20;5.45;;;;;;;0.72;73.18;94772.66;5072558;28;20094;-71
2024/01/30 11:29:37;;;;;;;7.78;5.68;;;;;;;0.51;72.72;94775.81;5079251;28;20491;-71
2024/01/30 11:32:05;;;;;;;9.52;5.78;;;;;;;0.66;74.55;94777.25;5072000;28;20514;-71
2024/01/30 11:34:33;;;;;;;13.27;7.82;;;;;;;0.82;73.41;94777.88;5078363;28;20412;-71
2024/01/30 11:37:04;;;;;;;20.63;12.07;;;;;;;0.56;73.90;94780.53;5071862;28;20099;-71